Time;durP1;ratioP1;P1;durP2;ratioP2;P2;SDS_P1;SDS_P2;PMS_P1;PMS_P2;Temp;Humidity;BMP_temperature;BMP_pressure;BME280_temperature;BME280_humidity;BME280_pressure;Samples;Min_cycle;Max_cycle;Signal;HPM_P1;HPM_P2
2024/03/17 00:00:53;;;;;;;;;;;7.90;99.90;;;8.33;63.79;101208.91;4943049;29;19927;-83
2024/03/17 00:03:22;;;;;;;;;;;7.90;99.90;;;8.32;63.91;101200.09;4943342;29;20073;-84
2024/03/17 00:05:49;;;;;;;;;;;7.90;99.90;;;8.32;63.59;101196.63;4960967;29;20021;-84
2024/03/17 00:08:18;;;;;;;;;;;7.90;99.90;;;8.29;63.49;101195.13;4943672;29;19950;-84
2024/03/17 00:10:44;;;;;;;;;;;7.90;99.90;;;8.27;63.69;101195.31;4943598;29;20406;-85
2024/03/17 00:13:11;;;;;;;;;;;7.90;99.90;;;8.24;63.79;101185.03;4944910;29;19933;-84
2024/03/17 00:15:37;;;;;;;;;;;7.80;99.90;;;8.22;63.72;101191.53;4963827;28;19927;-84
2024/03/17 00:18:05;;;;;;;;;;;7.80;99.90;;;8.17;63.72;101181.44;4943634;29;19926;-84
2024/03/17 00:20:32;;;;;;;;;;;7.70;99.90;;;8.12;63.87;101183.81;4956262;28;19934;-84
2024/03/17 00:22:59;;;;;;;;;;;7.70;99.90;;;8.06;63.92;101181.88;4940909;29;19926;-84
2024/03/17 00:25:26;;;;;;;;;;;7.60;99.90;;;8.05;63.67;101179.38;4957935;29;19926;-84
2024/03/17 00:27:56;;;;;;;;;;;7.60;99.90;;;8.04;63.76;101183.03;4940375;29;20359;-84
2024/03/17 00:30:23;;;;;;;;;;;7.60;99.90;;;8.05;63.73;101177.53;4940641;29;20455;-84
2024/03/17 00:32:50;;;;;;;;;;;7.60;99.90;;;8.06;63.91;101171.25;4955810;29;19932;-84
2024/03/17 00:35:20;;;;;;;;;;;7.60;99.90;;;8.07;63.65;101177.38;4940302;29;19997;-84
2024/03/17 00:37:47;;;;;;;;;;;7.60;99.90;;;8.06;64.03;101168.59;4955748;28;19953;-84
2024/03/17 00:40:14;;;;;;;;;;;7.60;99.90;;;8.03;64.10;101170.78;4957074;29;19932;-84
2024/03/17 00:42:45;;;;;;;;;;;7.60;99.90;;;8.02;64.34;101161.97;4940267;29;19966;-85
2024/03/17 00:45:11;;;;;;;;;;;7.60;99.90;;;8.02;63.97;101166.47;4940853;29;20001;-84
2024/03/17 00:47:38;;;;;;;;;;;7.50;99.90;;;7.98;64.38;101165.97;4953310;29;19926;-83
2024/03/17 00:50:06;;;;;;;;;;;7.50;99.90;;;7.98;64.14;101163.31;4952708;29;19934;-84
2024/03/17 00:52:35;;;;;;;;;;;7.50;99.90;;;7.95;64.15;101163.66;4936407;29;20329;-85
2024/03/17 00:55:02;;;;;;;;;;;7.50;99.90;;;7.92;64.62;101161.38;4954657;29;20396;-84
2024/03/17 00:57:29;;;;;;;;;;;7.50;99.90;;;7.91;64.53;101154.44;4936668;29;19937;-84
2024/03/17 00:59:57;;;;;;;;;;;7.50;99.90;;;7.86;64.63;101147.00;4955825;29;19934;-84
2024/03/17 01:02:25;;;;;;;;;;;7.40;99.90;;;7.84;64.75;101145.50;4956907;29;19931;-84
2024/03/17 01:04:51;;;;;;;;;;;7.40;99.90;;;7.83;64.74;101149.16;4957304;29;20654;-84
2024/03/17 01:07:18;;;;;;;;;;;7.40;99.90;;;7.80;64.43;101146.84;4956954;29;20041;-84
2024/03/17 01:09:46;;;;;;;;;;;7.40;99.90;;;7.72;64.47;101151.22;4941095;29;20356;-84
2024/03/17 01:12:14;;;;;;;;;;;7.30;99.90;;;7.69;64.68;101156.88;4958455;29;19942;-84
2024/03/17 01:14:40;;;;;;;;;;;7.30;99.90;;;7.67;64.47;101152.75;4954058;29;19950;-84
2024/03/17 01:17:09;;;;;;;;;;;7.20;99.90;;;7.64;64.46;101134.50;4921310;29;20422;-84
2024/03/17 01:19:35;;;;;;;;;;;7.20;99.90;;;7.64;64.53;101138.00;4938756;29;19926;-84
2024/03/17 01:22:02;;;;;;;;;;;7.20;99.90;;;7.59;64.36;101128.91;4939225;29;19930;-85
2024/03/17 01:24:31;;;;;;;;;;;7.10;99.90;;;7.56;64.45;101139.84;4939504;29;19977;-84
2024/03/17 01:26:59;;;;;;;;;;;7.10;99.90;;;7.53;64.54;101135.75;4956720;28;19982;-83
2024/03/17 01:29:25;;;;;;;;;;;7.10;99.90;;;7.52;64.30;101135.94;4939657;29;20446;-84
2024/03/17 01:31:52;;;;;;;;;;;7.00;99.90;;;7.48;64.31;101136.25;4956583;29;19959;-84
2024/03/17 01:34:20;;;;;;;;;;;7.00;99.90;;;7.44;64.25;101137.59;4955534;29;19981;-84
2024/03/17 01:36:47;;;;;;;;;;;7.00;99.90;;;7.41;64.55;101139.78;4955227;29;19931;-84
2024/03/17 01:39:15;;;;;;;;;;;7.00;99.90;;;7.40;64.48;101132.81;4957182;29;19927;-84
2024/03/17 01:41:44;;;;;;;;;;;6.90;99.90;;;7.38;64.46;101138.31;4956477;28;19981;-85
2024/03/17 01:44:21;;;;;;;;;;;6.90;99.90;;;7.39;64.39;101131.19;4939562;29;19930;-84
2024/03/17 01:46:49;;;;;;;;;;;6.90;99.90;;;7.37;64.41;101134.00;4956579;29;19926;-84
2024/03/17 01:49:16;;;;;;;;;;;6.90;99.90;;;7.34;64.40;101128.22;4958299;28;19927;-84
2024/03/17 01:51:45;;;;;;;;;;;6.90;99.90;;;7.31;64.64;101129.38;4960934;29;19930;-84
2024/03/17 01:54:14;;;;;;;;;;;6.90;99.90;;;7.29;64.60;101134.03;4927986;29;20028;-84
2024/03/17 01:56:43;;;;;;;;;;;6.80;99.90;;;7.26;64.74;101129.06;4944154;29;19965;-85
2024/03/17 01:59:09;;;;;;;;;;;6.80;99.90;;;7.20;64.74;101125.28;4942982;29;19926;-84
2024/03/17 02:01:36;;;;;;;;;;;6.80;99.90;;;7.17;64.87;101130.97;4944191;29;19927;-85
2024/03/17 02:04:03;;;;;;;;;;;6.70;99.90;;;7.15;64.79;101119.69;4943354;29;19930;-84
2024/03/17 02:06:31;;;;;;;;;;;6.70;99.90;;;7.15;64.74;101122.34;4943891;29;19926;-84
2024/03/17 02:08:59;;;;;;;;;;;6.70;99.90;;;7.18;64.79;101124.66;4959865;29;20320;-84
2024/03/17 02:11:28;;;;;;;;;;;6.70;99.90;;;7.20;64.60;101117.34;4943790;29;19934;-84
2024/03/17 02:13:56;;;;;;;;;;;6.70;99.90;;;7.18;64.77;101105.25;4942634;29;19977;-84
2024/03/17 02:16:24;;;;;;;;;;;6.70;99.90;;;7.17;64.73;101099.13;4942159;29;19931;-85
2024/03/17 02:18:54;;;;;;;;;;;6.70;99.90;;;7.19;64.66;101112.22;4942287;29;19934;-84
2024/03/17 02:21:22;;;;;;;;;;;6.70;99.90;;;7.18;64.59;101108.72;4925224;29;19970;-84
2024/03/17 02:23:50;;;;;;;;;;;6.70;99.90;;;7.20;65.09;101109.38;4927721;29;19998;-84
2024/03/17 02:26:18;;;;;;;;;;;6.70;99.90;;;7.19;64.93;101106.91;4943456;29;19926;-84
2024/03/17 02:28:45;;;;;;;;;;;6.70;99.90;;;7.18;65.08;101106.06;4960831;29;19933;-85
2024/03/17 02:31:14;;;;;;;;;;;6.70;99.90;;;7.18;65.25;101107.91;4962691;28;19926;-84
2024/03/17 02:33:41;;;;;;;;;;;6.70;99.90;;;7.17;65.29;101103.56;4962353;28;19937;-85
2024/03/17 02:36:09;;;;;;;;;;;6.70;99.90;;;7.18;65.00;101100.78;4963505;29;19931;-84
2024/03/17 02:41:23;;;;;;;;;;;6.70;99.90;;;7.15;65.02;101095.81;4958287;29;20014;-84
2024/03/17 02:43:50;;;;;;;;;;;6.70;99.90;;;7.16;65.01;101089.50;4960609;29;19926;-84
2024/03/17 02:46:19;;;;;;;;;;;6.70;99.90;;;7.15;64.96;101089.69;4942586;29;20016;-84
2024/03/17 02:48:54;;;;;;;;;;;6.60;99.90;;;7.15;64.85;101090.50;4959083;29;20343;-85
2024/03/17 02:51:24;;;;;;;;;;;6.60;99.90;;;7.11;64.75;101093.66;4959820;29;19957;-85
2024/03/17 02:53:51;;;;;;;;;;;6.60;99.90;;;7.09;64.96;101096.50;4958661;29;20383;-83
2024/03/17 02:56:19;;;;;;;;;;;6.80;99.90;;;7.08;64.87;101092.22;4958256;29;19934;-84
2024/03/17 02:58:48;;;;;;;;;;;6.60;99.90;;;7.06;64.68;101080.94;4958737;29;20021;-84
2024/03/17 03:01:16;;;;;;;;;;;6.60;99.90;;;7.03;64.86;101088.38;4940279;29;19986;-84
2024/03/17 03:03:45;;;;;;;;;;;6.60;99.90;;;7.01;65.02;101077.97;4957950;29;20450;-84
2024/03/17 03:06:13;;;;;;;;;;;6.50;99.90;;;6.97;65.30;101068.69;4941360;29;19937;-85
2024/03/17 03:08:40;;;;;;;;;;;6.50;99.90;;;6.95;65.62;101076.84;4957651;29;19927;-84
2024/03/17 03:11:10;;;;;;;;;;;6.50;99.90;;;6.94;65.22;101082.31;4941523;29;19927;-85
2024/03/17 03:13:39;;;;;;;;;;;6.50;99.90;;;6.92;65.57;101082.47;4941624;29;19932;-84
2024/03/17 03:16:09;;;;;;;;;;;6.50;99.90;;;6.92;65.05;101084.31;4958284;29;19927;-84
2024/03/17 03:18:36;;;;;;;;;;;6.50;99.90;;;6.88;64.72;101077.69;4941813;29;19989;-84
2024/03/17 03:21:04;;;;;;;;;;;6.40;99.90;;;6.85;65.02;101084.16;4959105;29;19973;-84
2024/03/17 03:23:31;;;;;;;;;;;6.40;99.90;;;6.80;64.86;101083.88;4941771;29;20307;-84
2024/03/17 03:25:58;;;;;;;;;;;6.30;99.90;;;6.72;64.81;101084.69;4957778;28;19927;-84
2024/03/17 03:28:26;;;;;;;;;;;6.30;99.90;;;6.69;64.79;101086.88;4958447;29;19969;-85
2024/03/17 03:30:54;;;;;;;;;;;6.30;99.90;;;6.66;65.05;101079.25;4963611;29;19982;-84
2024/03/17 03:33:23;;;;;;;;;;;6.20;99.90;;;6.64;65.11;101081.28;4943325;29;19926;-84
2024/03/17 03:35:50;;;;;;;;;;;6.20;99.90;;;6.64;64.73;101082.09;4958917;28;19930;-84
2024/03/17 03:38:18;;;;;;;;;;;6.20;99.90;;;6.65;65.12;101086.41;4943138;29;19948;-84
2024/03/17 03:40:45;;;;;;;;;;;6.20;99.90;;;6.66;64.97;101080.09;4958044;29;19973;-83
2024/03/17 03:43:13;;;;;;;;;;;6.20;99.90;;;6.64;64.82;101081.28;4959142;29;19930;-84
2024/03/17 03:45:41;;;;;;;;;;;6.20;99.90;;;6.60;64.72;101080.78;4959388;29;19927;-83
2024/03/17 03:48:09;;;;;;;;;;;6.20;99.90;;;6.58;64.88;101085.41;4960431;28;20430;-84
2024/03/17 03:50:39;;;;;;;;;;;6.10;99.90;;;6.56;64.91;101082.13;4944009;29;19926;-84
2024/03/17 03:53:06;;;;;;;;;;;6.10;99.90;;;6.52;64.97;101082.63;4960167;29;19927;-83
2024/03/17 03:55:36;;;;;;;;;;;6.10;99.90;;;6.51;64.99;101083.63;4960076;29;19954;-84
2024/03/17 03:58:04;;;;;;;;;;;6.00;99.90;;;6.52;64.99;101075.50;4957329;29;19964;-84
2024/03/17 04:00:32;;;;;;;;;;;6.00;99.90;;;6.51;65.11;101075.66;4939661;29;19965;-84
2024/03/17 04:03:01;;;;;;;;;;;6.00;99.90;;;6.51;64.96;101076.50;4959312;29;19949;-83
2024/03/17 04:05:30;;;;;;;;;;;6.00;99.90;;;6.51;64.80;101073.84;4965854;29;20479;-84
2024/03/17 04:07:59;;;;;;;;;;;6.00;99.90;;;6.50;65.29;101074.03;4956336;29;19927;-83
2024/03/17 04:10:26;;;;;;;;;;;6.00;99.90;;;6.49;64.99;101077.66;4957520;29;19934;-83
2024/03/17 04:12:54;;;;;;;;;;;6.00;99.90;;;6.44;65.16;101080.78;4940075;29;19930;-84
2024/03/17 04:15:21;;;;;;;;;;;5.90;99.90;;;6.42;65.19;101080.97;4941146;29;19950;-84
2024/03/17 04:17:48;;;;;;;;;;;5.90;99.90;;;6.44;65.11;101076.34;4960153;28;19934;-84
2024/03/17 04:20:16;;;;;;;;;;;5.90;99.90;;;6.43;65.11;101074.69;4941786;29;19927;-83
2024/03/17 04:22:45;;;;;;;;;;;6.00;99.90;;;6.40;65.53;101075.03;4959142;29;19981;-85
2024/03/17 04:25:14;;;;;;;;;;;6.00;99.90;;;6.42;65.51;101072.22;4942272;29;19989;-84
2024/03/17 04:27:41;;;;;;;;;;;6.00;99.90;;;6.42;65.71;101069.56;4941451;29;20404;-84
2024/03/17 04:30:11;;;;;;;;;;;6.00;99.90;;;6.44;66.39;101065.75;4942143;29;20407;-84
2024/03/17 04:32:40;;;;;;;;;;;6.00;99.90;;;6.42;66.49;101062.44;4959113;29;20017;-84
2024/03/17 04:35:08;;;;;;;;;;;6.00;99.90;;;6.36;66.60;101063.13;4941575;29;19926;-84
2024/03/17 04:37:38;;;;;;;;;;;6.00;99.90;;;6.39;66.97;101061.94;4959555;29;19930;-83
2024/03/17 04:40:09;;;;;;;;;;;6.00;99.90;;;6.40;66.73;101053.00;4957348;29;19926;-84
2024/03/17 04:42:39;;;;;;;;;;;6.00;99.90;;;6.40;66.80;101045.06;4941331;29;19950;-83
2024/03/17 04:45:10;;;;;;;;;;;6.00;99.90;;;6.42;66.67;101045.72;4942295;29;19927;-83
2024/03/17 04:47:38;;;;;;;;;;;6.00;99.90;;;6.41;66.44;101044.88;4958856;29;19978;-83
2024/03/17 04:50:06;;;;;;;;;;;6.00;99.90;;;6.41;66.77;101052.84;4957670;28;19930;-83
2024/03/17 04:52:33;;;;;;;;;;;6.00;99.90;;;6.41;66.45;101044.06;4941470;29;19993;-85
2024/03/17 04:55:02;;;;;;;;;;;6.00;99.90;;;6.41;66.90;101038.78;4945916;29;19933;-84
2024/03/17 04:57:29;;;;;;;;;;;6.00;99.90;;;6.42;66.62;101040.41;4956443;29;20344;-84
2024/03/17 04:59:59;;;;;;;;;;;6.00;99.90;;;6.43;66.65;101037.59;4956405;29;20367;-84
2024/03/17 05:02:27;;;;;;;;;;;6.00;99.90;;;6.44;66.52;101041.06;4956414;29;20388;-84
2024/03/17 05:04:55;;;;;;;;;;;6.00;99.90;;;6.44;66.62;101038.41;4956302;28;20381;-84
2024/03/17 05:07:22;;;;;;;;;;;6.10;99.90;;;6.43;66.51;101037.59;4922929;29;20013;-83
2024/03/17 05:09:49;;;;;;;;;;;6.10;99.90;;;6.41;66.17;101036.13;4955309;29;19934;-84
2024/03/17 05:12:17;;;;;;;;;;;6.00;99.90;;;6.38;66.27;101031.97;4954210;29;19933;-83
2024/03/17 05:14:44;;;;;;;;;;;6.00;99.90;;;6.34;66.15;101043.91;4938473;29;20380;-84
2024/03/17 05:17:12;;;;;;;;;;;5.90;99.90;;;6.29;66.38;101042.75;4939212;29;19931;-84
2024/03/17 05:19:39;;;;;;;;;;;5.90;99.90;;;6.27;66.11;101040.28;4960761;29;20343;-85
2024/03/17 05:22:07;;;;;;;;;;;5.90;99.90;;;6.21;66.43;101042.78;4959291;29;19933;-84
2024/03/17 05:24:34;;;;;;;;;;;5.80;99.90;;;6.17;66.15;101045.78;4958136;28;19930;-84
2024/03/17 05:27:01;;;;;;;;;;;5.80;99.90;;;6.19;65.97;101035.00;4943948;29;19962;-84
2024/03/17 05:29:28;;;;;;;;;;;5.80;99.90;;;6.17;66.25;101032.53;4940457;29;19927;-84
2024/03/17 05:31:55;;;;;;;;;;;5.80;99.90;;;6.18;66.03;101039.47;4957346;29;19982;-83
2024/03/17 05:34:26;;;;;;;;;;;5.80;99.90;;;6.15;66.31;101026.59;4944039;29;20352;-84
2024/03/17 05:36:53;;;;;;;;;;;5.80;99.90;;;6.15;66.40;101034.53;4943506;29;19926;-84
2024/03/17 05:39:22;;;;;;;;;;;5.70;99.90;;;6.13;66.63;101033.84;4960499;29;19944;-84
2024/03/17 05:41:49;;;;;;;;;;;5.70;99.90;;;6.13;66.56;101020.59;4960136;29;20385;-84
2024/03/17 05:44:17;;;;;;;;;;;5.70;99.90;;;6.14;66.83;101021.44;4958766;29;19933;-84
2024/03/17 05:46:46;;;;;;;;;;;5.70;99.90;;;6.14;66.90;101019.59;4960555;29;19930;-83
2024/03/17 05:49:13;;;;;;;;;;;5.70;99.90;;;6.15;66.83;101029.22;4942119;29;19926;-83
2024/03/17 05:51:43;;;;;;;;;;;5.70;99.90;;;6.16;66.91;101030.88;4959903;28;19926;-83
2024/03/17 05:54:11;;;;;;;;;;;5.70;99.90;;;6.15;67.10;101037.19;4942325;29;19936;-84
2024/03/17 05:56:39;;;;;;;;;;;5.70;99.90;;;6.15;67.52;101039.00;4942333;29;19933;-84
2024/03/17 05:59:06;;;;;;;;;;;5.80;99.90;;;6.16;67.47;101028.22;4958251;29;20454;-83
2024/03/17 06:01:33;;;;;;;;;;;5.80;99.90;;;6.17;67.34;101037.00;4958226;29;20307;-83
2024/03/17 06:04:04;;;;;;;;;;;5.80;99.90;;;6.19;67.56;101033.16;4957918;29;19930;-83
2024/03/17 06:06:32;;;;;;;;;;;5.80;99.90;;;6.22;67.82;101034.66;4942100;29;20029;-84
2024/03/17 06:09:00;;;;;;;;;;;5.90;99.90;;;6.23;67.75;101036.31;4926142;29;19961;-84
2024/03/17 06:11:28;;;;;;;;;;;5.90;99.90;;;6.28;68.08;101033.16;4938262;29;19950;-84
2024/03/17 06:13:57;;;;;;;;;;;5.90;99.90;;;6.33;67.92;101030.84;4933508;29;20408;-83
2024/03/17 06:16:26;;;;;;;;;;;6.00;99.90;;;6.36;68.34;101025.22;4958271;29;19970;-83
2024/03/17 06:18:54;;;;;;;;;;;6.00;99.90;;;6.39;68.43;101030.16;4958166;29;19927;-84
2024/03/17 06:21:22;;;;;;;;;;;6.10;99.90;;;6.42;68.41;101019.22;4942125;29;19931;-84
2024/03/17 06:23:50;;;;;;;;;;;6.10;99.90;;;6.45;68.55;101025.00;4959498;29;19977;-83
2024/03/17 06:26:20;;;;;;;;;;;6.10;99.90;;;6.52;68.74;101013.72;4959528;29;19970;-84
2024/03/17 06:28:48;;;;;;;;;;;6.20;99.90;;;6.54;68.77;101009.91;4959417;29;20315;-84
2024/03/17 06:31:15;;;;;;;;;;;6.20;99.90;;;6.59;68.83;101009.41;4942278;29;19997;-84
2024/03/17 06:33:44;;;;;;;;;;;6.30;99.90;;;6.64;68.66;101012.38;4958502;29;19926;-84
2024/03/17 06:36:11;;;;;;;;;;;6.30;99.90;;;6.67;68.73;101018.13;4958834;28;19961;-84
2024/03/17 06:38:38;;;;;;;;;;;6.40;99.90;;;6.75;68.91;101017.28;4957882;29;20017;-84
2024/03/17 06:41:06;;;;;;;;;;;6.50;99.90;;;6.78;68.58;101016.91;4942007;29;19926;-84
2024/03/17 06:43:35;;;;;;;;;;;6.50;99.90;;;6.83;68.65;101011.94;4958113;29;19974;-84
2024/03/17 06:46:02;;;;;;;;;;;6.60;99.90;;;6.86;68.46;101021.38;4957903;29;19989;-84
2024/03/17 06:48:30;;;;;;;;;;;6.60;99.90;;;6.88;68.72;101014.06;4959222;29;19933;-83
2024/03/17 06:50:57;;;;;;;;;;;6.60;99.90;;;6.91;68.96;101017.19;4941681;29;19941;-83
2024/03/17 06:53:26;;;;;;;;;;;6.60;99.90;;;6.98;69.15;101017.34;4957139;29;19942;-84
2024/03/17 06:55:55;;;;;;;;;;;6.70;99.90;;;7.01;68.75;101002.91;4941507;29;19927;-84
2024/03/17 06:58:26;;;;;;;;;;;6.70;99.90;;;7.08;68.95;100994.06;4940737;29;19934;-84
2024/03/17 07:00:59;;;;;;;;;;;6.80;99.90;;;7.13;68.90;100988.25;4958535;28;20451;-83
2024/03/17 07:03:27;;;;;;;;;;;6.90;99.90;;;7.20;69.10;100986.53;4942728;29;19926;-85
2024/03/17 07:05:58;;;;;;;;;;;7.00;99.90;;;7.28;69.00;100993.63;4943550;29;20019;-85
2024/03/17 07:08:27;;;;;;;;;;;7.00;99.90;;;7.32;69.24;100977.16;4961487;29;19937;-85
2024/03/17 07:11:01;;;;;;;;;;;7.10;99.90;;;7.39;69.29;100978.09;4962378;29;20399;-84
2024/03/17 07:13:30;;;;;;;;;;;7.10;99.90;;;7.48;69.13;100973.56;4945185;29;19977;-84
2024/03/17 07:15:59;;;;;;;;;;;7.20;99.90;;;7.56;69.00;100985.91;4945639;29;19931;-85
2024/03/17 07:18:28;;;;;;;;;;;7.30;99.90;;;7.64;69.02;100983.19;4963963;29;19958;-85
2024/03/17 07:21:02;;;;;;;;;;;7.40;99.90;;;7.72;69.23;100978.66;4960172;29;19981;-84
2024/03/17 07:23:29;;;;;;;;;;;7.50;99.90;;;7.81;69.53;100975.91;4942021;29;19926;-85
2024/03/17 07:25:57;;;;;;;;;;;7.60;99.90;;;7.89;69.63;100989.13;4942894;29;19933;-88
2024/03/17 07:28:25;;;;;;;;;;;7.80;99.90;;;7.99;68.43;100990.50;4958316;29;20093;-83
2024/03/17 07:30:54;;;;;;;;;;;7.90;99.90;;;8.12;67.14;100991.72;4960542;29;20051;-82
2024/03/17 07:33:23;;;;;;;;;;;8.10;99.90;;;8.23;67.39;101000.03;4958483;29;20451;-84
2024/03/17 07:35:52;;;;;;;;;;;8.30;99.90;;;8.37;67.48;101000.28;4957448;28;20388;-84
2024/03/17 07:38:20;;;;;;;;;;;8.40;99.90;;;8.46;65.97;101001.84;4924286;29;19932;-84
2024/03/17 07:40:57;;;;;;;;;;;8.60;99.90;;;8.54;66.60;101004.41;4957940;29;19945;-83
2024/03/17 07:43:24;;;;;;;;;;;8.70;99.90;;;8.56;65.14;100997.06;4958590;29;20017;-84
2024/03/17 07:45:59;;;;;;;;;;;8.70;99.90;;;8.61;64.61;100992.00;4941773;29;20396;-83
2024/03/17 07:48:29;;;;;;;;;;;8.70;99.90;;;8.67;65.63;100985.13;4959948;28;19930;-84
2024/03/17 07:50:57;;;;;;;;;;;8.80;99.90;;;8.70;65.51;100993.56;4947480;29;19993;-85
2024/03/17 07:53:26;;;;;;;;;;;8.90;99.90;;;8.77;66.05;100997.09;4944815;29;20013;-85
2024/03/17 07:56:01;;;;;;;;;;;8.90;99.90;;;8.86;64.54;100991.69;4942482;29;19933;-84
2024/03/17 07:58:29;;;;;;;;;;;9.00;99.90;;;9.00;64.66;100988.16;4943254;29;19954;-85
2024/03/17 08:01:01;;;;;;;;;;;9.20;99.90;;;9.16;63.97;100990.59;4930749;29;19930;-85
2024/03/17 08:03:32;;;;;;;;;;;9.40;99.90;;;9.25;62.71;100996.63;4947254;29;19933;-84
2024/03/17 08:06:01;;;;;;;;;;;9.50;99.90;;;9.34;62.76;100987.50;4962532;29;20470;-84
2024/03/17 08:08:29;;;;;;;;;;;9.60;99.90;;;9.41;62.14;100987.53;4961010;29;19930;-84
2024/03/17 08:11:03;;;;;;;;;;;9.70;99.90;;;9.45;62.75;100994.97;4962267;29;20017;-84
2024/03/17 08:13:33;;;;;;;;;;;9.70;99.90;;;9.48;62.23;100983.94;4945456;29;20344;-84
2024/03/17 08:16:02;;;;;;;;;;;9.80;99.90;;;9.47;61.80;100995.63;4962253;29;19934;-84
2024/03/17 08:18:33;;;;;;;;;;;9.80;99.90;;;9.56;61.69;100996.28;4963775;28;19926;-85
2024/03/17 08:21:01;;;;;;;;;;;9.90;99.90;;;9.61;62.48;100983.22;4945859;29;19934;-84
2024/03/17 08:23:29;;;;;;;;;;;9.90;99.90;;;9.60;62.22;100984.22;4962028;28;19927;-85
2024/03/17 08:25:57;;;;;;;;;;;9.90;99.90;;;9.61;62.18;100990.38;4918522;29;19979;-88
2024/03/17 08:28:26;;;;;;;;;;;9.90;99.90;;;9.59;61.58;100993.25;4900516;29;19950;-85
2024/03/17 08:30:54;;;;;;;;;;;9.90;99.90;;;9.64;62.50;101012.13;4885606;29;20430;-87
2024/03/17 08:33:24;;;;;;;;;;;9.90;99.90;;;9.85;62.44;101015.78;4880437;29;20425;-84
2024/03/17 08:35:56;;;;;;;;;;;10.10;99.90;;;9.91;61.63;101009.72;4865582;29;20080;-84
2024/03/17 08:38:24;;;;;;;;;;;10.20;99.90;;;9.95;61.89;101002.94;4880345;29;20072;-85
2024/03/17 08:40:51;;;;;;;;;;;10.20;99.90;;;9.96;61.11;100999.28;4834025;29;19928;-84
2024/03/17 08:43:19;;;;;;;;;;;10.20;99.90;;;10.00;61.14;101000.53;4880232;29;19938;-85
2024/03/17 08:45:46;;;;;;;;;;;10.30;99.90;;;10.06;61.39;101002.44;4879532;29;20032;-85
2024/03/17 08:48:13;;;;;;;;;;;10.40;99.90;;;10.01;60.61;100997.69;4888199;29;19932;-85
2024/03/17 08:50:41;;;;;;;;;;;10.40;99.90;;;10.03;61.11;100992.16;4881485;29;19932;-84
2024/03/17 08:53:09;;;;;;;;;;;10.40;99.90;;;10.05;61.22;100996.28;4866598;29;19955;-83
2024/03/17 08:55:40;;;;;;;;;;;10.40;99.90;;;10.10;60.94;100997.50;4867388;29;20068;-83
2024/03/17 08:58:08;;;;;;;;;;;10.40;99.90;;;10.15;62.50;100995.94;4917132;29;19975;-84
2024/03/17 09:00:36;;;;;;;;;;;10.40;99.90;;;10.20;62.39;100993.50;4904874;29;19973;-84
2024/03/17 09:03:03;;;;;;;;;;;10.50;99.90;;;10.17;61.60;100988.56;4919861;29;19931;-85
2024/03/17 09:05:33;;;;;;;;;;;10.50;99.90;;;10.21;62.22;100984.50;4918993;29;19927;-84
2024/03/17 09:08:00;;;;;;;;;;;10.50;99.90;;;10.24;60.30;100977.97;4905101;29;19945;-84
2024/03/17 09:10:29;;;;;;;;;;;10.50;99.90;;;10.26;60.66;100984.75;4870987;29;20399;-84
2024/03/17 09:12:57;;;;;;;;;;;10.60;99.90;;;10.28;61.27;100980.03;4944297;29;20355;-84
2024/03/17 09:15:24;;;;;;;;;;;10.60;99.90;;;10.33;61.64;100979.44;4960395;29;19993;-84
2024/03/17 09:17:51;;;;;;;;;;;10.60;99.90;;;10.35;61.42;100976.59;4942608;29;19927;-84
2024/03/17 09:20:19;;;;;;;;;;;10.60;99.90;;;10.36;61.25;100970.25;4943562;29;19930;-84
2024/03/17 09:22:46;;;;;;;;;;;10.60;99.90;;;10.36;61.30;100972.91;4924513;29;20021;-84
2024/03/17 09:25:14;;;;;;;;;;;10.60;99.90;;;10.37;60.56;100972.69;4945155;29;20029;-85
2024/03/17 09:27:43;;;;;;;;;;;10.60;99.90;;;10.38;61.03;100970.84;4961704;29;19934;-84
2024/03/17 09:30:11;;;;;;;;;;;10.60;99.90;;;10.41;61.64;100973.13;4963551;29;20277;-84
2024/03/17 09:32:41;;;;;;;;;;;10.60;99.90;;;10.42;61.90;100969.44;4963283;29;19990;-84
2024/03/17 09:35:09;;;;;;;;;;;10.60;99.90;;;10.40;61.25;100963.50;4962020;29;19927;-85
2024/03/17 09:37:36;;;;;;;;;;;10.60;99.90;;;10.41;61.34;100968.63;4965891;29;19970;-85
2024/03/17 09:40:06;;;;;;;;;;;10.60;99.90;;;10.40;60.11;100968.84;4964093;29;19930;-85
2024/03/17 09:42:33;;;;;;;;;;;10.60;99.90;;;10.42;60.89;100964.94;4940878;29;19981;-84
2024/03/17 09:45:04;;;;;;;;;;;10.60;99.90;;;10.43;60.63;100966.56;4972081;28;19933;-84
2024/03/17 09:47:31;;;;;;;;;;;10.60;99.90;;;10.44;59.73;100962.06;4958568;29;19927;-84
2024/03/17 09:49:59;;;;;;;;;;;10.60;99.90;;;10.47;59.60;100954.50;4959019;28;19938;-84
2024/03/17 09:52:27;;;;;;;;;;;10.70;99.90;;;10.50;59.66;100954.09;4926178;29;19934;-84
2024/03/17 09:54:59;;;;;;;;;;;10.70;99.90;;;10.56;60.40;100958.66;4960214;29;19969;-84
2024/03/17 09:57:27;;;;;;;;;;;10.80;99.90;;;10.61;59.88;100951.91;4959018;29;19931;-84
2024/03/17 09:59:55;;;;;;;;;;;10.80;99.90;;;10.64;60.30;100952.31;4961400;29;20403;-84
2024/03/17 10:02:23;;;;;;;;;;;10.80;99.90;;;10.68;61.01;100956.22;4958900;29;19934;-84
2024/03/17 10:04:51;;;;;;;;;;;10.90;99.90;;;10.70;60.30;100974.72;4937875;29;19927;-84
2024/03/17 10:07:18;;;;;;;;;;;10.90;99.90;;;10.70;59.29;100978.19;4922514;29;19966;-84
2024/03/17 10:09:45;;;;;;;;;;;10.90;99.90;;;10.75;60.02;100985.59;4924324;28;19926;-84
2024/03/17 10:12:29;;;;;;;;;;;11.00;99.90;;;10.76;59.57;100985.38;4963092;29;20418;-84
2024/03/17 10:15:00;;;;;;;;;;;11.00;99.90;;;10.76;59.65;100971.22;4961919;29;19973;-84
2024/03/17 10:17:33;;;;;;;;;;;10.90;99.90;;;10.80;60.69;100973.31;4945494;29;20407;-84
2024/03/17 10:20:15;;;;;;;;;;;11.00;99.90;;;10.82;60.46;100968.56;4962853;29;19966;-84
2024/03/17 10:23:02;;;;;;;;;;;11.00;99.90;;;10.86;60.24;100973.53;4961095;29;19930;-84
2024/03/17 10:28:13;;;;;;;;;;;11.10;99.90;;;10.91;60.47;100973.75;4944262;29;19957;-84
2024/03/17 10:31:04;;;;;;;;;;;11.10;99.90;;;10.95;61.15;100983.00;4960858;29;20407;-85
2024/03/17 10:33:32;;;;;;;;;;;11.20;99.90;;;10.96;60.03;100982.78;4961493;29;20028;-84
2024/03/17 10:36:01;;;;;;;;;;;11.20;99.90;;;11.03;60.26;100988.16;4963142;29;19930;-84
2024/03/17 10:38:28;;;;;;;;;;;11.20;99.90;;;11.08;59.79;100980.38;4961004;29;19926;-85
2024/03/17 10:40:56;;;;;;;;;;;11.30;99.90;;;11.09;58.79;100980.16;4963303;29;19930;-84
2024/03/17 10:43:25;;;;;;;;;;;11.30;99.90;;;11.14;59.74;100979.56;4961808;29;19927;-84
2024/03/17 10:45:57;;;;;;;;;;;11.40;99.90;;;11.23;60.42;100981.03;4945367;29;20289;-84
2024/03/17 10:48:27;;;;;;;;;;;11.40;99.90;;;11.25;59.26;100983.47;4962946;29;19927;-85
2024/03/17 10:50:59;;;;;;;;;;;11.50;99.90;;;11.30;59.65;100979.16;4963553;29;19931;-84
2024/03/17 10:53:27;;;;;;;;;;;11.60;99.90;;;11.32;59.16;100969.13;4946647;29;19933;-85
2024/03/17 10:56:01;;;;;;;;;;;11.60;99.90;;;11.36;59.45;100966.84;4965257;29;19930;-85
2024/03/17 10:58:35;;;;;;;;;;;11.60;99.90;;;11.39;58.97;100965.63;4960637;29;19942;-85
2024/03/17 11:01:07;;;;;;;;;;;11.70;99.90;;;11.41;59.31;100975.06;4961438;29;20021;-85
2024/03/17 11:03:36;;;;;;;;;;;11.70;99.90;;;11.42;58.86;100974.06;4961911;29;20418;-85
2024/03/17 11:06:12;;;;;;;;;;;11.70;99.90;;;11.43;59.25;100982.88;4963297;29;19927;-84
2024/03/17 11:08:42;;;;;;;;;;;11.70;99.90;;;11.43;59.59;100967.69;4962141;29;19990;-85
2024/03/17 11:11:10;;;;;;;;;;;11.70;99.90;;;11.49;59.71;100976.72;4944054;29;19969;-84
2024/03/17 11:13:43;;;;;;;;;;;11.70;99.90;;;11.45;58.97;100970.97;4944641;29;20396;-84
2024/03/17 11:16:30;;;;;;;;;;;11.70;99.90;;;11.49;60.69;100968.72;4963822;29;19957;-84
2024/03/17 11:22:27;;;;;;;;;;;11.80;99.90;;;11.54;59.49;100969.75;4944114;29;19933;-84
2024/03/17 11:25:47;;;;;;;;;;;11.80;99.90;;;11.54;59.78;100968.91;4956294;29;20471;-84
2024/03/17 11:28:35;;;;;;;;;;;11.80;99.90;;;11.51;59.21;100966.66;4935762;29;20006;-87
2024/03/17 11:31:09;;;;;;;;;;;11.70;99.90;;;11.47;59.58;100965.44;4944129;29;19938;-84
2024/03/17 11:33:50;;;;;;;;;;;11.70;99.90;;;11.48;60.32;100959.06;4927154;29;19927;-85
2024/03/17 11:36:39;;;;;;;;;;;11.70;99.90;;;11.49;59.93;100960.69;4922153;29;19927;-87
2024/03/17 11:39:17;;;;;;;;;;;11.70;99.90;;;11.49;59.66;100961.53;4935547;29;19927;-87